Time;durP1;ratioP1;P1;durP2;ratioP2;P2;SDS_P1;SDS_P2;PMS_P1;PMS_P2;Temp;Humidity;BMP_temperature;BMP_pressure;BME280_temperature;BME280_humidity;BME280_pressure;Samples;Min_cycle;Max_cycle;Signal;HPM_P1;HPM_P2
2024/01/17 00:00:23;;;;;;;548.38;59.45;;;;;;;;;;10541284;28;20031;-75
2024/01/17 00:05:23;;;;;;;601.05;67.35;;;;;;;;;;10542178;28;20306;-74
2024/01/17 00:10:24;;;;;;;628.55;74.78;;;;;;;;;;10541781;28;20206;-75
2024/01/17 00:15:24;;;;;;;593.22;65.63;;;;;;;;;;10541216;28;20246;-73
2024/01/17 00:20:24;;;;;;;478.23;53.53;;;;;;;;;;10541320;28;20215;-75
2024/01/17 00:25:25;;;;;;;316.08;40.85;;;;;;;;;;10523118;28;20024;-75
2024/01/17 00:30:26;;;;;;;245.93;34.88;;;;;;;;;;10516891;28;20013;-75
2024/01/17 00:35:26;;;;;;;523.80;59.10;;;;;;;;;;10517375;28;20059;-75
2024/01/17 00:40:27;;;;;;;609.00;70.88;;;;;;;;;;10540938;28;20027;-75
2024/01/17 00:45:27;;;;;;;632.25;89.13;;;;;;;;;;10522847;28;20058;-75
2024/01/17 00:50:28;;;;;;;622.40;77.20;;;;;;;;;;10540756;28;20035;-75
2024/01/17 00:55:28;;;;;;;617.13;76.47;;;;;;;;;;10540488;28;20369;-76
2024/01/17 01:00:28;;;;;;;624.20;78.15;;;;;;;;;;10547925;28;20269;-74
2024/01/17 01:05:28;;;;;;;610.40;76.57;;;;;;;;;;10530289;28;20346;-74
2024/01/17 01:10:29;;;;;;;227.50;34.70;;;;;;;;;;10529933;28;20566;-76
2024/01/17 01:15:29;;;;;;;160.25;28.35;;;;;;;;;;10548472;28;20190;-75
2024/01/17 01:20:29;;;;;;;215.73;32.53;;;;;;;;;;10530156;28;20211;-75
2024/01/17 01:25:29;;;;;;;529.88;58.42;;;;;;;;;;10529935;28;20020;-74
2024/01/17 01:30:30;;;;;;;449.48;52.40;;;;;;;;;;10529876;28;20262;-76
2024/01/17 01:35:31;;;;;;;462.42;52.70;;;;;;;;;;10547979;28;20099;-76
2024/01/17 01:40:31;;;;;;;522.40;57.42;;;;;;;;;;10547298;28;20333;-74
2024/01/17 01:45:31;;;;;;;462.77;52.57;;;;;;;;;;10547539;28;20066;-75
2024/01/17 01:50:31;;;;;;;492.55;54.80;;;;;;;;;;10547248;28;20265;-74
2024/01/17 01:55:32;;;;;;;496.60;55.13;;;;;;;;;;10546800;28;20040;-74
2024/01/17 02:00:32;;;;;;;527.38;57.42;;;;;;;;;;10528633;28;20274;-74
2024/01/17 02:05:32;;;;;;;443.13;51.60;;;;;;;;;;10547058;28;20020;-75
2024/01/17 02:10:32;;;;;;;505.98;55.63;;;;;;;;;;10527706;28;20019;-74
2024/01/17 02:15:33;;;;;;;475.10;53.72;;;;;;;;;;10528294;28;20341;-75
2024/01/17 02:20:33;;;;;;;389.33;49.35;;;;;;;;;;10546211;28;20065;-75
2024/01/17 02:25:33;;;;;;;391.77;47.92;;;;;;;;;;10527478;28;20032;-75
2024/01/17 02:30:34;;;;;;;285.02;39.67;;;;;;;;;;10545513;28;20026;-76
2024/01/17 02:35:35;;;;;;;174.60;31.05;;;;;;;;;;10545473;28;20054;-75
2024/01/17 02:40:35;;;;;;;226.05;33.88;;;;;;;;;;10545460;28;20470;-76
2024/01/17 02:45:35;;;;;;;337.35;43.42;;;;;;;;;;10527716;28;20244;-75
2024/01/17 02:50:36;;;;;;;171.65;27.85;;;;;;;;;;10545356;28;20309;-75
2024/01/17 02:55:36;;;;;;;456.70;52.45;;;;;;;;;;10526262;28;20339;-76
2024/01/17 03:00:42;;;;;;;493.67;59.08;;;;;;;;;;10544700;28;20052;-74
2024/01/17 03:05:42;;;;;;;530.05;104.60;;;;;;;;;;10544673;28;20232;-75
2024/01/17 03:10:42;;;;;;;665.80;152.68;;;;;;;;;;10520158;28;20127;-75
2024/01/17 03:15:42;;;;;;;659.20;155.75;;;;;;;;;;10525629;28;20016;-74
2024/01/17 03:20:43;;;;;;;460.40;59.58;;;;;;;;;;10524585;28;20044;-75
2024/01/17 03:25:43;;;;;;;628.05;80.55;;;;;;;;;;10543458;28;20024;-75
2024/01/17 03:30:43;;;;;;;628.17;80.90;;;;;;;;;;10542707;28;20068;-76
2024/01/17 03:35:43;;;;;;;634.35;84.72;;;;;;;;;;10543434;28;20294;-76
2024/01/17 03:40:44;;;;;;;632.42;83.22;;;;;;;;;;10542743;28;20313;-75
2024/01/17 03:45:45;;;;;;;631.03;84.63;;;;;;;;;;10539970;28;20031;-75
2024/01/17 03:50:45;;;;;;;619.22;77.75;;;;;;;;;;10502745;28;20035;-75
2024/01/17 03:55:45;;;;;;;627.97;82.72;;;;;;;;;;10542315;28;20075;-74
2024/01/17 04:00:45;;;;;;;629.60;82.68;;;;;;;;;;10541709;28;20020;-74
2024/01/17 04:05:46;;;;;;;621.50;79.43;;;;;;;;;;10542204;28;20117;-75
2024/01/17 04:10:46;;;;;;;632.95;87.55;;;;;;;;;;10502034;28;20093;-74
2024/01/17 04:15:46;;;;;;;631.00;86.75;;;;;;;;;;10499684;28;20020;-76
2024/01/17 04:20:46;;;;;;;627.85;82.57;;;;;;;;;;10439026;28;20039;-75
2024/01/17 04:25:46;;;;;;;626.72;84.35;;;;;;;;;;10456352;28;20040;-76
2024/01/17 04:30:47;;;;;;;627.03;83.93;;;;;;;;;;10456876;28;20017;-74
2024/01/17 04:35:47;;;;;;;627.53;85.32;;;;;;;;;;10457197;28;20017;-76
2024/01/17 04:40:47;;;;;;;628.50;85.03;;;;;;;;;;10456839;28;20037;-75
2024/01/17 04:45:48;;;;;;;638.72;89.57;;;;;;;;;;10456833;28;20314;-75
2024/01/17 04:50:52;;;;;;;628.78;88.25;;;;;;;;;;10440315;28;20021;-76
2024/01/17 04:55:52;;;;;;;631.47;88.45;;;;;;;;;;10457651;28;20020;-76
2024/01/17 05:00:53;;;;;;;620.53;78.57;;;;;;;;;;10456430;28;20377;-75
2024/01/17 05:05:53;;;;;;;623.97;79.47;;;;;;;;;;10454995;28;20342;-74
2024/01/17 05:10:54;;;;;;;630.38;84.00;;;;;;;;;;10455603;28;20013;-74
2024/01/17 05:15:54;;;;;;;625.55;79.18;;;;;;;;;;10456381;28;20017;-74
2024/01/17 05:20:55;;;;;;;623.67;78.15;;;;;;;;;;10524130;28;20047;-75
2024/01/17 05:25:56;;;;;;;626.47;81.03;;;;;;;;;;10539457;28;20065;-76
2024/01/17 05:30:56;;;;;;;625.17;80.60;;;;;;;;;;10536335;28;20008;-74
2024/01/17 05:35:56;;;;;;;621.38;79.28;;;;;;;;;;10536837;28;20341;-75
2024/01/17 05:40:57;;;;;;;615.17;75.70;;;;;;;;;;10518014;28;20031;-74
2024/01/17 05:45:57;;;;;;;623.95;82.70;;;;;;;;;;10545133;28;20046;-75
2024/01/17 05:50:58;;;;;;;598.97;70.72;;;;;;;;;;10546881;28;20310;-75
2024/01/17 05:55:58;;;;;;;606.25;71.05;;;;;;;;;;10546679;28;20107;-74
2024/01/17 06:00:58;;;;;;;598.63;70.18;;;;;;;;;;10528141;28;20345;-76
2024/01/17 06:05:58;;;;;;;582.72;66.00;;;;;;;;;;10546867;28;20314;-75
2024/01/17 06:10:59;;;;;;;518.70;57.83;;;;;;;;;;10527421;28;20344;-75
2024/01/17 06:15:59;;;;;;;559.20;61.63;;;;;;;;;;10545506;28;20084;-77
2024/01/17 06:20:59;;;;;;;512.95;56.83;;;;;;;;;;10527041;28;20294;-76
2024/01/17 06:25:59;;;;;;;549.60;59.80;;;;;;;;;;10545790;28;20028;-74
2024/01/17 06:31:00;;;;;;;495.08;55.92;;;;;;;;;;10526205;28;20020;-76
2024/01/17 06:36:00;;;;;;;512.53;56.38;;;;;;;;;;10526751;28;20087;-76
2024/01/17 06:41:00;;;;;;;374.05;46.50;;;;;;;;;;10544623;28;20020;-74
2024/01/17 06:46:00;;;;;;;452.92;52.58;;;;;;;;;;10543861;28;20028;-75
2024/01/17 06:51:01;;;;;;;576.58;64.72;;;;;;;;;;10543498;28;20306;-74
2024/01/17 06:56:02;;;;;;;604.88;67.53;;;;;;;;;;10525082;28;20256;-75
2024/01/17 07:01:02;;;;;;;563.38;62.72;;;;;;;;;;10525661;28;20016;-75
2024/01/17 07:06:04;;;;;;;452.17;52.17;;;;;;;;;;10543112;28;20016;-76
2024/01/17 07:11:04;;;;;;;449.10;51.80;;;;;;;;;;10525502;28;20012;-76
2024/01/17 07:16:05;;;;;;;477.20;53.92;;;;;;;;;;10526087;28;20362;-77
2024/01/17 07:21:06;;;;;;;500.13;55.45;;;;;;;;;;10542997;28;20492;-76
2024/01/17 07:26:06;;;;;;;503.80;56.05;;;;;;;;;;10545566;28;20318;-74
2024/01/17 07:31:07;;;;;;;493.35;55.33;;;;;;;;;;10543019;28;20024;-74
2024/01/17 07:36:07;;;;;;;464.77;53.22;;;;;;;;;;10543178;28;20028;-75
2024/01/17 07:41:08;;;;;;;478.83;54.25;;;;;;;;;;10524174;28;20584;-75
2024/01/17 07:46:08;;;;;;;470.63;54.03;;;;;;;;;;10537404;28;20020;-74
2024/01/17 07:51:08;;;;;;;491.42;55.20;;;;;;;;;;10541523;28;20016;-75
2024/01/17 07:56:09;;;;;;;505.42;57.00;;;;;;;;;;10523911;28;20091;-76
2024/01/17 08:01:10;;;;;;;507.25;57.50;;;;;;;;;;10541327;28;20027;-76
2024/01/17 08:06:10;;;;;;;531.50;58.10;;;;;;;;;;10523000;28;20028;-74
2024/01/17 08:11:10;;;;;;;524.83;58.03;;;;;;;;;;10537237;28;20036;-76
2024/01/17 08:16:10;;;;;;;511.67;57.25;;;;;;;;;;10535397;28;20023;-75
2024/01/17 08:21:10;;;;;;;530.45;58.25;;;;;;;;;;10532233;28;20186;-77
2024/01/17 08:26:11;;;;;;;526.53;58.05;;;;;;;;;;10540062;28;20012;-76
2024/01/17 08:31:12;;;;;;;514.97;57.40;;;;;;;;;;10540391;28;20075;-74
2024/01/17 08:36:14;;;;;;;520.70;58.10;;;;;;;;;;10540249;28;20035;-76
2024/01/17 08:41:18;;;;;;;545.88;60.40;;;;;;;;;;10521554;28;20028;-76
2024/01/17 08:46:19;;;;;;;555.30;61.65;;;;;;;;;;10539657;28;20135;-75
2024/01/17 08:51:21;;;;;;;560.05;61.40;;;;;;;;;;10539652;28;20062;-77
2024/01/17 08:56:22;;;;;;;497.77;57.50;;;;;;;;;;10539373;28;20083;-75
2024/01/17 09:01:22;;;;;;;280.92;41.63;;;;;;;;;;10539994;28;20023;-76
2024/01/17 09:06:22;;;;;;;466.58;54.55;;;;;;;;;;10538949;28;20012;-76
2024/01/17 09:11:22;;;;;;;390.27;49.30;;;;;;;;;;10539381;28;20207;-77
2024/01/17 09:16:23;;;;;;;408.08;50.63;;;;;;;;;;10539508;28;20058;-76
2024/01/17 09:21:23;;;;;;;445.27;53.10;;;;;;;;;;10546189;28;20659;-75
2024/01/17 09:26:23;;;;;;;427.88;52.22;;;;;;;;;;10547920;28;20016;-81
2024/01/17 09:31:24;;;;;;;453.45;53.70;;;;;;;;;;10529370;28;20318;-76
2024/01/17 09:36:24;;;;;;;439.40;52.58;;;;;;;;;;10532852;28;20483;-76
2024/01/17 09:41:25;;;;;;;449.27;53.33;;;;;;;;;;10547212;28;20047;-76
2024/01/17 09:46:26;;;;;;;415.83;51.30;;;;;;;;;;10517441;28;20035;-77
2024/01/17 09:51:27;;;;;;;479.05;54.95;;;;;;;;;;10545079;28;20020;-76
2024/01/17 09:56:28;;;;;;;452.85;53.35;;;;;;;;;;10546326;28;20023;-76
2024/01/17 10:01:30;;;;;;;462.23;54.70;;;;;;;;;;10546575;28;20015;-77
2024/01/17 10:06:31;;;;;;;477.73;55.58;;;;;;;;;;10549170;28;20332;-77
2024/01/17 10:11:31;;;;;;;444.42;53.33;;;;;;;;;;10545964;28;20078;-76
2024/01/17 10:16:31;;;;;;;451.90;54.25;;;;;;;;;;10546205;28;20034;-77
2024/01/17 10:21:33;;;;;;;463.17;54.60;;;;;;;;;;10545947;28;20243;-76
2024/01/17 10:26:34;;;;;;;429.00;52.17;;;;;;;;;;10527335;28;20021;-76
2024/01/17 10:31:37;;;;;;;412.48;51.33;;;;;;;;;;10544862;28;20081;-77
2024/01/17 10:36:43;;;;;;;386.17;49.95;;;;;;;;;;10544859;28;20325;-76
2024/01/17 10:41:54;;;;;;;366.02;48.25;;;;;;;;;;10544719;28;20016;-76
2024/01/17 10:46:54;;;;;;;338.05;46.38;;;;;;;;;;10544365;28;20028;-77
2024/01/17 10:52:02;;;;;;;361.33;47.72;;;;;;;;;;10502010;28;20360;-76
2024/01/17 10:57:06;;;;;;;380.60;49.72;;;;;;;;;;10523095;28;20050;-76
2024/01/17 11:02:09;;;;;;;345.23;47.13;;;;;;;;;;10544386;28;20031;-77
2024/01/17 11:07:10;;;;;;;344.75;47.03;;;;;;;;;;10525521;28;20309;-75
2024/01/17 11:12:10;;;;;;;369.05;48.58;;;;;;;;;;10544062;28;20225;-76
2024/01/17 11:17:11;;;;;;;423.23;52.80;;;;;;;;;;10543517;28;20140;-77
2024/01/17 11:22:12;;;;;;;381.30;50.03;;;;;;;;;;10543905;28;20217;-77
2024/01/17 11:27:17;;;;;;;389.05;49.80;;;;;;;;;;10524855;28;20032;-75
2024/01/17 11:32:35;;;;;;;390.67;50.38;;;;;;;;;;10542490;28;20141;-78
2024/01/17 11:37:38;;;;;;;333.02;46.53;;;;;;;;;;10542121;28;20020;-78
2024/01/17 11:42:40;;;;;;;293.08;43.10;;;;;;;;;;10542059;28;20210;-78
2024/01/17 11:47:44;;;;;;;269.00;41.88;;;;;;;;;;10524293;28;20034;-77
2024/01/17 11:52:46;;;;;;;294.73;44.17;;;;;;;;;;10524127;28;20317;-78
2024/01/17 11:57:46;;;;;;;314.87;45.13;;;;;;;;;;10524552;28;20117;-76
2024/01/17 12:02:46;;;;;;;415.48;52.67;;;;;;;;;;10542077;28;20782;-78
2024/01/17 12:07:49;;;;;;;316.30;45.28;;;;;;;;;;10542183;28;20237;-78
2024/01/17 12:12:49;;;;;;;506.63;58.35;;;;;;;;;;10523624;28;20042;-77
2024/01/17 12:17:50;;;;;;;434.10;53.83;;;;;;;;;;10541259;28;20059;-77
2024/01/17 12:22:50;;;;;;;449.77;54.70;;;;;;;;;;10523559;28;20102;-77
2024/01/17 12:27:54;;;;;;;419.23;52.45;;;;;;;;;;10541696;28;20298;-78
2024/01/17 12:32:55;;;;;;;313.13;45.60;;;;;;;;;;10523046;28;20016;-78
2024/01/17 12:37:55;;;;;;;452.48;55.15;;;;;;;;;;10540970;28;20016;-77
2024/01/17 12:42:57;;;;;;;447.55;54.85;;;;;;;;;;10541113;28;20195;-78
2024/01/17 12:47:58;;;;;;;483.50;57.78;;;;;;;;;;10536905;28;20248;-76
2024/01/17 12:52:58;;;;;;;469.17;56.67;;;;;;;;;;10520484;28;20019;-78
2024/01/17 12:57:58;;;;;;;248.18;40.97;;;;;;;;;;10530210;28;20367;-79
2024/01/17 13:02:58;;;;;;;327.23;46.17;;;;;;;;;;10529245;28;20099;-77
2024/01/17 13:08:28;;;;;;;429.70;54.55;;;;;;;;;;10530086;28;20210;-76
2024/01/17 13:13:32;;;;;;;458.85;56.28;;;;;;;;;;10471747;28;20036;-78
2024/01/17 13:18:33;;;;;;;569.42;65.70;;;;;;;;;;10538413;28;20065;-79
2024/01/17 13:23:33;;;;;;;536.15;62.10;;;;;;;;;;10548355;28;20060;-78
2024/01/17 13:28:34;;;;;;;532.28;62.13;;;;;;;;;;10547782;28;20020;-78
2024/01/17 13:33:34;;;;;;;512.13;59.92;;;;;;;;;;10547761;28;20013;-78
2024/01/17 13:38:35;;;;;;;483.85;57.78;;;;;;;;;;10547424;28;20043;-77
2024/01/17 13:43:36;;;;;;;446.38;55.40;;;;;;;;;;10546437;28;20024;-77
2024/01/17 13:48:37;;;;;;;438.98;54.90;;;;;;;;;;10547165;28;20061;-78
2024/01/17 13:53:41;;;;;;;442.10;55.03;;;;;;;;;;10528596;28;20095;-77
2024/01/17 13:58:41;;;;;;;500.95;59.08;;;;;;;;;;10546652;28;20333;-77
2024/01/17 14:03:42;;;;;;;463.75;56.58;;;;;;;;;;10545786;28;20030;-78
2024/01/17 14:08:42;;;;;;;452.73;55.70;;;;;;;;;;10545560;28;20209;-76
2024/01/17 14:13:42;;;;;;;429.48;54.00;;;;;;;;;;10545735;28;20019;-77
2024/01/17 14:18:42;;;;;;;339.73;47.47;;;;;;;;;;10545626;28;20104;-77
2024/01/17 14:23:43;;;;;;;221.35;39.38;;;;;;;;;;10545744;28;20024;-77
2024/01/17 14:28:43;;;;;;;228.10;39.55;;;;;;;;;;10527269;28;20175;-77
2024/01/17 14:33:45;;;;;;;136.52;32.13;;;;;;;;;;10545630;28;20298;-78
2024/01/17 14:38:45;;;;;;;175.80;35.38;;;;;;;;;;10550382;28;20012;-78
2024/01/17 14:43:46;;;;;;;362.95;48.97;;;;;;;;;;10504603;28;20029;-77
2024/01/17 14:48:46;;;;;;;515.28;59.45;;;;;;;;;;10514018;28;20601;-78
2024/01/17 14:53:46;;;;;;;569.13;64.38;;;;;;;;;;10532247;28;20229;-72
2024/01/17 14:58:46;;;;;;;432.38;53.22;;;;;;;;;;10528810;28;20024;-73
2024/01/17 15:03:46;;;;;;;269.35;41.97;;;;;;;;;;10509391;28;20041;-73
2024/01/17 15:08:48;;;;;;;443.55;53.92;;;;;;;;;;10530659;28;20020;-72
2024/01/17 15:13:48;;;;;;;434.58;53.78;;;;;;;;;;10530944;28;20479;-72
2024/01/17 15:18:49;;;;;;;440.20;54.05;;;;;;;;;;10511146;28;20031;-73
2024/01/17 15:23:49;;;;;;;543.35;61.35;;;;;;;;;;10530139;28;20218;-71
2024/01/17 15:28:49;;;;;;;418.85;51.80;;;;;;;;;;10530863;28;20244;-73
2024/01/17 15:33:49;;;;;;;462.05;55.45;;;;;;;;;;10529569;28;20309;-73
2024/01/17 15:38:52;;;;;;;564.15;64.40;;;;;;;;;;10511493;28;20020;-73
2024/01/17 15:43:53;;;;;;;511.80;58.58;;;;;;;;;;10511700;28;20019;-74
2024/01/17 15:48:53;;;;;;;487.67;57.33;;;;;;;;;;10511774;28;20381;-73
2024/01/17 15:53:53;;;;;;;583.50;66.43;;;;;;;;;;10529159;28;20030;-71
2024/01/17 15:58:54;;;;;;;593.45;66.88;;;;;;;;;;10511053;28;20076;-72
2024/01/17 16:03:54;;;;;;;544.35;61.55;;;;;;;;;;10510242;28;20008;-71
2024/01/17 16:08:54;;;;;;;562.55;64.15;;;;;;;;;;10529146;28;20087;-71
2024/01/17 16:13:54;;;;;;;635.03;80.65;;;;;;;;;;10528403;28;20008;-71
2024/01/17 16:18:54;;;;;;;585.88;66.30;;;;;;;;;;10528958;28;20054;-72
2024/01/17 16:23:55;;;;;;;592.47;67.28;;;;;;;;;;10527902;28;20020;-74
2024/01/17 16:28:55;;;;;;;574.03;64.40;;;;;;;;;;10528434;28;20005;-73
2024/01/17 16:33:55;;;;;;;617.58;72.22;;;;;;;;;;10512037;28;20012;-81
2024/01/17 16:38:55;;;;;;;604.97;69.70;;;;;;;;;;10529076;28;20036;-74
2024/01/17 16:43:56;;;;;;;598.22;67.28;;;;;;;;;;10527144;28;20091;-73
2024/01/17 16:48:56;;;;;;;576.25;64.43;;;;;;;;;;10510945;28;20070;-75
2024/01/17 16:53:56;;;;;;;596.03;67.57;;;;;;;;;;10525140;28;20000;-74
2024/01/17 16:58:57;;;;;;;585.40;66.32;;;;;;;;;;10507565;28;20240;-74
2024/01/17 17:03:57;;;;;;;588.42;66.18;;;;;;;;;;10526354;28;20210;-76
2024/01/17 17:08:57;;;;;;;587.67;66.85;;;;;;;;;;10528177;28;20024;-75
2024/01/17 17:13:58;;;;;;;588.95;66.45;;;;;;;;;;10528241;28;20008;-76
2024/01/17 17:18:58;;;;;;;586.80;65.72;;;;;;;;;;10528590;28;20032;-76
2024/01/17 17:23:58;;;;;;;578.15;64.72;;;;;;;;;;10527633;28;20058;-76
2024/01/17 17:28:59;;;;;;;536.17;60.08;;;;;;;;;;10509867;28;20291;-75
2024/01/17 17:33:59;;;;;;;496.30;56.40;;;;;;;;;;10528688;28;20217;-77
2024/01/17 17:39:00;;;;;;;462.08;54.42;;;;;;;;;;10529176;28;20099;-77
2024/01/17 17:44:00;;;;;;;471.75;56.00;;;;;;;;;;10535185;28;20020;-75
2024/01/17 17:49:00;;;;;;;393.88;50.22;;;;;;;;;;10535009;28;20019;-75
2024/01/17 17:54:01;;;;;;;465.30;54.53;;;;;;;;;;10516585;28;20008;-75
2024/01/17 17:59:01;;;;;;;511.00;60.03;;;;;;;;;;10535518;28;20024;-78
2024/01/17 18:04:02;;;;;;;618.10;71.60;;;;;;;;;;10535080;28;20024;-76
2024/01/17 18:09:02;;;;;;;609.42;69.53;;;;;;;;;;10532555;28;20080;-75
2024/01/17 18:14:03;;;;;;;592.63;65.60;;;;;;;;;;10535142;28;20236;-75
2024/01/17 18:19:03;;;;;;;586.90;65.82;;;;;;;;;;10515969;28;20074;-75
2024/01/17 18:24:03;;;;;;;595.65;66.45;;;;;;;;;;10531049;28;20016;-74
2024/01/17 18:29:04;;;;;;;586.03;65.57;;;;;;;;;;10530150;28;20012;-76
2024/01/17 18:34:05;;;;;;;590.20;66.65;;;;;;;;;;10530090;28;20043;-76
2024/01/17 18:39:05;;;;;;;608.58;68.95;;;;;;;;;;10531137;28;20240;-74
2024/01/17 18:44:05;;;;;;;626.88;75.28;;;;;;;;;;10532991;28;20244;-74
2024/01/17 18:49:05;;;;;;;615.88;72.50;;;;;;;;;;10515534;28;20201;-75
2024/01/17 18:54:07;;;;;;;613.25;71.10;;;;;;;;;;10532189;28;20042;-75
2024/01/17 18:59:07;;;;;;;607.15;70.03;;;;;;;;;;10532602;28;20023;-77
2024/01/17 19:04:10;;;;;;;617.72;72.97;;;;;;;;;;10531895;28;20302;-78
2024/01/17 19:09:15;;;;;;;597.30;68.05;;;;;;;;;;10530501;28;20016;-75
2024/01/17 19:14:16;;;;;;;604.38;69.57;;;;;;;;;;10533914;28;20020;-77
2024/01/17 19:19:17;;;;;;;607.78;69.68;;;;;;;;;;10536700;28;20051;-80
2024/01/17 19:24:18;;;;;;;623.17;74.78;;;;;;;;;;10533102;28;20333;-75
2024/01/17 19:29:18;;;;;;;628.92;73.78;;;;;;;;;;10531446;28;20167;-76
2024/01/17 19:34:18;;;;;;;629.80;76.55;;;;;;;;;;10516201;28;20028;-82
2024/01/17 19:39:42;;;;;;;620.05;73.15;;;;;;;;;;10528483;28;20091;-88
2024/01/17 19:44:42;;;;;;;618.92;73.50;;;;;;;;;;10535873;28;20054;-81
2024/01/17 19:49:45;;;;;;;597.80;67.35;;;;;;;;;;10537081;28;20024;-86
2024/01/17 19:54:49;;;;;;;600.95;67.43;;;;;;;;;;10530080;28;20008;-77
2024/01/17 19:59:50;;;;;;;593.08;66.22;;;;;;;;;;10529673;28;20111;-77
2024/01/17 20:04:51;;;;;;;582.10;64.67;;;;;;;;;;10530552;28;20020;-76
2024/01/17 20:09:51;;;;;;;588.70;65.75;;;;;;;;;;10528264;28;20262;-74
2024/01/17 20:14:51;;;;;;;595.65;66.78;;;;;;;;;;10529913;28;20073;-77
2024/01/17 20:19:52;;;;;;;586.05;65.93;;;;;;;;;;10531216;28;20256;-81
2024/01/17 20:24:52;;;;;;;586.45;65.20;;;;;;;;;;10513515;28;20027;-77
2024/01/17 20:29:52;;;;;;;610.88;71.47;;;;;;;;;;10526541;28;20026;-79
2024/01/17 20:34:52;;;;;;;609.70;70.72;;;;;;;;;;10536430;28;20024;-88
2024/01/17 20:39:56;;;;;;;610.15;69.97;;;;;;;;;;10516809;28;20023;-90
2024/01/17 20:44:56;;;;;;;602.92;67.18;;;;;;;;;;10508075;28;20210;-78
2024/01/17 20:49:56;;;;;;;600.58;69.40;;;;;;;;;;10534045;28;20031;-85
2024/01/17 20:54:57;;;;;;;610.88;70.47;;;;;;;;;;10509961;28;20019;-80
2024/01/17 20:59:59;;;;;;;601.38;69.07;;;;;;;;;;10529330;28;20336;-84
2024/01/17 21:05:00;;;;;;;593.25;66.85;;;;;;;;;;10528223;28;20297;-78
2024/01/17 21:10:03;;;;;;;602.77;68.70;;;;;;;;;;10529169;28;20097;-79
2024/01/17 21:15:05;;;;;;;611.10;71.60;;;;;;;;;;10515359;28;20258;-79
2024/01/17 21:20:05;;;;;;;632.72;78.22;;;;;;;;;;10538729;28;20052;-80
2024/01/17 21:25:06;;;;;;;594.05;67.30;;;;;;;;;;10534048;28;20318;-78
2024/01/17 21:30:06;;;;;;;587.20;66.78;;;;;;;;;;10536175;28;20320;-81
2024/01/17 21:35:07;;;;;;;619.45;75.50;;;;;;;;;;10532287;28;20043;-74
2024/01/17 21:40:08;;;;;;;612.90;72.82;;;;;;;;;;10534989;28;20063;-76
2024/01/17 21:45:08;;;;;;;613.70;73.25;;;;;;;;;;10514845;28;20325;-75
2024/01/17 21:50:09;;;;;;;630.25;78.68;;;;;;;;;;10540822;28;20008;-75
2024/01/17 21:55:09;;;;;;;648.53;101.22;;;;;;;;;;10537237;28;20054;-75
2024/01/17 22:00:09;;;;;;;661.47;115.45;;;;;;;;;;10517729;28;20225;-75
2024/01/17 22:05:13;;;;;;;640.45;86.35;;;;;;;;;;10543264;28;20385;-75
2024/01/17 22:10:15;;;;;;;643.88;87.97;;;;;;;;;;10528010;28;20220;-74
2024/01/17 22:15:16;;;;;;;649.38;90.45;;;;;;;;;;10546188;28;20226;-74
2024/01/17 22:20:16;;;;;;;645.45;88.07;;;;;;;;;;10545840;28;20051;-74
2024/01/17 22:25:16;;;;;;;641.90;83.57;;;;;;;;;;10545188;28;20070;-75
2024/01/17 22:30:16;;;;;;;622.78;76.95;;;;;;;;;;10545576;28;20023;-75
2024/01/17 22:35:16;;;;;;;625.25;76.97;;;;;;;;;;10545679;28;20226;-75
2024/01/17 22:40:17;;;;;;;625.85;77.40;;;;;;;;;;10545687;28;20035;-75
2024/01/17 22:45:18;;;;;;;628.67;78.30;;;;;;;;;;10544859;28;20028;-75
2024/01/17 22:50:18;;;;;;;628.20;78.90;;;;;;;;;;10526795;28;20289;-74
2024/01/17 22:55:18;;;;;;;621.20;76.88;;;;;;;;;;10544443;28;20058;-74
2024/01/17 23:00:22;;;;;;;624.08;77.38;;;;;;;;;;10527303;28;20246;-74
2024/01/17 23:05:22;;;;;;;625.15;76.88;;;;;;;;;;10544231;28;20444;-75
2024/01/17 23:10:22;;;;;;;622.95;76.93;;;;;;;;;;10544546;28;20008;-75
2024/01/17 23:15:22;;;;;;;625.15;77.68;;;;;;;;;;10544045;28;20222;-74
2024/01/17 23:20:23;;;;;;;613.15;73.88;;;;;;;;;;10544317;28;20103;-74
2024/01/17 23:25:23;;;;;;;624.50;78.20;;;;;;;;;;10543049;28;20019;-75
2024/01/17 23:30:23;;;;;;;628.53;79.40;;;;;;;;;;10525358;28;20373;-75
2024/01/17 23:35:23;;;;;;;635.75;84.38;;;;;;;;;;10542998;28;20020;-74
2024/01/17 23:40:23;;;;;;;660.30;117.72;;;;;;;;;;10541893;28;20387;-75
2024/01/17 23:45:24;;;;;;;656.75;107.32;;;;;;;;;;10542531;28;20321;-74
2024/01/17 23:50:24;;;;;;;647.83;92.43;;;;;;;;;;10542726;28;20037;-74
2024/01/17 23:55:24;;;;;;;638.00;85.57;;;;;;;;;;10542338;28;20027;-74
